sensor_id;sensor_type;location;lat;lon;timestamp;P1;durP1;ratioP1;P2;durP2;ratioP2
38972;SDS011;25333;50.762;4.470;2023-09-19T00:01:32;6.78;;;1.63;;
38972;SDS011;25333;50.762;4.470;2023-09-19T00:03:59;6.20;;;1.00;;
38972;SDS011;25333;50.762;4.470;2023-09-19T00:06:27;5.28;;;1.27;;
38972;SDS011;25333;50.762;4.470;2023-09-19T00:08:56;4.75;;;1.15;;
38972;SDS011;25333;50.762;4.470;2023-09-19T00:11:24;8.25;;;1.50;;
38972;SDS011;25333;50.762;4.470;2023-09-19T00:13:54;6.65;;;1.08;;
38972;SDS011;25333;50.762;4.470;2023-09-19T00:16:19;4.97;;;1.50;;
38972;SDS011;25333;50.762;4.470;2023-09-19T00:18:45;5.13;;;1.50;;
38972;SDS011;25333;50.762;4.470;2023-09-19T00:21:14;8.57;;;1.45;;
38972;SDS011;25333;50.762;4.470;2023-09-19T00:23:40;4.70;;;1.70;;
38972;SDS011;25333;50.762;4.470;2023-09-19T00:26:06;5.63;;;1.65;;
38972;SDS011;25333;50.762;4.470;2023-09-19T00:28:32;4.40;;;0.90;;
38972;SDS011;25333;50.762;4.470;2023-09-19T00:30:58;4.90;;;0.95;;
38972;SDS011;25333;50.762;4.470;2023-09-19T00:33:26;6.57;;;1.08;;
38972;SDS011;25333;50.762;4.470;2023-09-19T00:35:54;7.68;;;1.25;;
38972;SDS011;25333;50.762;4.470;2023-09-19T00:38:23;4.50;;;0.98;;
38972;SDS011;25333;50.762;4.470;2023-09-19T00:40:52;4.78;;;1.02;;
38972;SDS011;25333;50.762;4.470;2023-09-19T00:43:19;3.78;;;1.13;;
38972;SDS011;25333;50.762;4.470;2023-09-19T00:45:47;6.82;;;1.13;;
38972;SDS011;25333;50.762;4.470;2023-09-19T00:48:16;4.75;;;1.08;;
38972;SDS011;25333;50.762;4.470;2023-09-19T00:50:43;6.32;;;1.50;;
38972;SDS011;25333;50.762;4.470;2023-09-19T00:53:17;4.85;;;0.75;;
38972;SDS011;25333;50.762;4.470;2023-09-19T00:55:45;3.50;;;1.23;;
38972;SDS011;25333;50.762;4.470;2023-09-19T00:58:13;4.83;;;1.20;;
38972;SDS011;25333;50.762;4.470;2023-09-19T01:00:39;6.35;;;1.10;;
38972;SDS011;25333;50.762;4.470;2023-09-19T01:03:06;5.43;;;1.38;;
38972;SDS011;25333;50.762;4.470;2023-09-19T01:05:33;6.38;;;1.10;;
38972;SDS011;25333;50.762;4.470;2023-09-19T01:08:08;8.68;;;0.88;;
38972;SDS011;25333;50.762;4.470;2023-09-19T01:10:36;7.55;;;0.88;;
38972;SDS011;25333;50.762;4.470;2023-09-19T01:18:35;5.55;;;1.30;;
38972;SDS011;25333;50.762;4.470;2023-09-19T01:21:28;4.43;;;1.23;;
38972;SDS011;25333;50.762;4.470;2023-09-19T01:24:30;6.80;;;1.10;;
38972;SDS011;25333;50.762;4.470;2023-09-19T01:29:41;5.75;;;1.48;;
38972;SDS011;25333;50.762;4.470;2023-09-19T01:32:10;3.28;;;1.20;;
38972;SDS011;25333;50.762;4.470;2023-09-19T01:37:29;4.28;;;1.05;;
38972;SDS011;25333;50.762;4.470;2023-09-19T01:40:06;6.97;;;1.38;;
38972;SDS011;25333;50.762;4.470;2023-09-19T01:45:46;5.53;;;0.85;;
38972;SDS011;25333;50.762;4.470;2023-09-19T01:51:18;5.55;;;0.98;;
38972;SDS011;25333;50.762;4.470;2023-09-19T01:53:53;6.03;;;1.70;;
38972;SDS011;25333;50.762;4.470;2023-09-19T01:56:33;3.23;;;1.10;;
38972;SDS011;25333;50.762;4.470;2023-09-19T01:59:10;6.95;;;1.13;;
38972;SDS011;25333;50.762;4.470;2023-09-19T02:01:41;5.63;;;0.95;;
38972;SDS011;25333;50.762;4.470;2023-09-19T02:04:09;8.13;;;1.90;;
38972;SDS011;25333;50.762;4.470;2023-09-19T02:06:39;6.72;;;1.02;;
38972;SDS011;25333;50.762;4.470;2023-09-19T02:09:07;6.07;;;1.60;;
38972;SDS011;25333;50.762;4.470;2023-09-19T02:11:34;7.87;;;1.03;;
38972;SDS011;25333;50.762;4.470;2023-09-19T02:14:04;5.93;;;1.23;;
38972;SDS011;25333;50.762;4.470;2023-09-19T02:16:33;8.63;;;1.67;;
38972;SDS011;25333;50.762;4.470;2023-09-19T02:19:02;9.43;;;1.85;;
38972;SDS011;25333;50.762;4.470;2023-09-19T02:21:30;7.45;;;1.60;;
38972;SDS011;25333;50.762;4.470;2023-09-19T02:23:57;7.07;;;2.17;;
38972;SDS011;25333;50.762;4.470;2023-09-19T02:26:23;5.90;;;1.00;;
38972;SDS011;25333;50.762;4.470;2023-09-19T02:28:52;5.90;;;1.33;;
38972;SDS011;25333;50.762;4.470;2023-09-19T02:31:19;5.65;;;1.40;;
38972;SDS011;25333;50.762;4.470;2023-09-19T02:33:44;6.15;;;1.30;;
38972;SDS011;25333;50.762;4.470;2023-09-19T02:36:13;10.70;;;1.80;;
38972;SDS011;25333;50.762;4.470;2023-09-19T02:38:42;7.03;;;1.50;;
38972;SDS011;25333;50.762;4.470;2023-09-19T02:41:07;3.10;;;1.00;;
38972;SDS011;25333;50.762;4.470;2023-09-19T02:43:33;9.25;;;1.98;;
38972;SDS011;25333;50.762;4.470;2023-09-19T02:46:03;9.07;;;1.40;;
38972;SDS011;25333;50.762;4.470;2023-09-19T02:48:31;7.97;;;1.10;;
38972;SDS011;25333;50.762;4.470;2023-09-19T02:50:57;8.38;;;1.83;;
38972;SDS011;25333;50.762;4.470;2023-09-19T02:53:28;6.50;;;1.55;;
38972;SDS011;25333;50.762;4.470;2023-09-19T02:55:54;8.18;;;1.60;;
38972;SDS011;25333;50.762;4.470;2023-09-19T02:58:19;6.22;;;1.50;;
38972;SDS011;25333;50.762;4.470;2023-09-19T03:00:45;7.43;;;2.00;;
38972;SDS011;25333;50.762;4.470;2023-09-19T03:03:16;6.65;;;1.20;;
38972;SDS011;25333;50.762;4.470;2023-09-19T03:05:42;6.70;;;1.43;;
38972;SDS011;25333;50.762;4.470;2023-09-19T03:08:12;4.72;;;1.30;;
38972;SDS011;25333;50.762;4.470;2023-09-19T03:10:40;7.57;;;1.40;;
38972;SDS011;25333;50.762;4.470;2023-09-19T03:13:05;5.10;;;1.38;;
38972;SDS011;25333;50.762;4.470;2023-09-19T03:15:34;7.90;;;1.10;;
38972;SDS011;25333;50.762;4.470;2023-09-19T03:18:04;4.38;;;1.30;;
38972;SDS011;25333;50.762;4.470;2023-09-19T03:20:31;4.40;;;1.60;;
38972;SDS011;25333;50.762;4.470;2023-09-19T03:22:56;7.65;;;0.98;;
38972;SDS011;25333;50.762;4.470;2023-09-19T03:25:22;5.88;;;1.50;;
38972;SDS011;25333;50.762;4.470;2023-09-19T03:27:48;7.10;;;1.37;;
38972;SDS011;25333;50.762;4.470;2023-09-19T03:30:13;6.47;;;1.10;;
38972;SDS011;25333;50.762;4.470;2023-09-19T03:32:46;5.80;;;1.50;;
38972;SDS011;25333;50.762;4.470;2023-09-19T03:35:14;6.47;;;1.52;;
38972;SDS011;25333;50.762;4.470;2023-09-19T03:37:41;6.87;;;1.10;;
38972;SDS011;25333;50.762;4.470;2023-09-19T03:40:08;5.75;;;1.15;;
38972;SDS011;25333;50.762;4.470;2023-09-19T03:42:37;8.77;;;2.30;;
38972;SDS011;25333;50.762;4.470;2023-09-19T03:45:04;11.90;;;1.50;;
38972;SDS011;25333;50.762;4.470;2023-09-19T03:47:31;5.43;;;1.65;;
38972;SDS011;25333;50.762;4.470;2023-09-19T03:49:58;11.93;;;1.95;;
38972;SDS011;25333;50.762;4.470;2023-09-19T03:52:23;10.20;;;2.07;;
38972;SDS011;25333;50.762;4.470;2023-09-19T03:54:50;5.95;;;1.20;;
38972;SDS011;25333;50.762;4.470;2023-09-19T03:57:18;7.00;;;2.00;;
38972;SDS011;25333;50.762;4.470;2023-09-19T03:59:45;6.88;;;1.60;;
38972;SDS011;25333;50.762;4.470;2023-09-19T04:02:12;5.97;;;1.10;;
38972;SDS011;25333;50.762;4.470;2023-09-19T04:04:47;6.57;;;1.63;;
38972;SDS011;25333;50.762;4.470;2023-09-19T04:07:13;7.10;;;1.00;;
38972;SDS011;25333;50.762;4.470;2023-09-19T04:09:39;4.80;;;1.13;;
38972;SDS011;25333;50.762;4.470;2023-09-19T04:12:05;8.53;;;1.50;;
38972;SDS011;25333;50.762;4.470;2023-09-19T04:14:30;7.25;;;2.03;;
38972;SDS011;25333;50.762;4.470;2023-09-19T04:16:56;5.40;;;1.43;;
38972;SDS011;25333;50.762;4.470;2023-09-19T04:19:22;10.40;;;1.45;;
38972;SDS011;25333;50.762;4.470;2023-09-19T04:21:48;4.60;;;1.08;;
38972;SDS011;25333;50.762;4.470;2023-09-19T04:24:13;4.70;;;1.23;;
38972;SDS011;25333;50.762;4.470;2023-09-19T04:26:39;6.40;;;1.65;;
38972;SDS011;25333;50.762;4.470;2023-09-19T04:29:05;6.50;;;1.63;;
38972;SDS011;25333;50.762;4.470;2023-09-19T04:31:31;4.63;;;1.23;;
38972;SDS011;25333;50.762;4.470;2023-09-19T04:33:57;4.45;;;1.00;;
38972;SDS011;25333;50.762;4.470;2023-09-19T04:36:26;7.35;;;1.20;;
38972;SDS011;25333;50.762;4.470;2023-09-19T04:38:54;5.53;;;1.38;;
38972;SDS011;25333;50.762;4.470;2023-09-19T04:41:25;6.22;;;1.40;;
38972;SDS011;25333;50.762;4.470;2023-09-19T04:43:50;5.23;;;1.00;;
38972;SDS011;25333;50.762;4.470;2023-09-19T04:46:16;6.47;;;0.70;;
38972;SDS011;25333;50.762;4.470;2023-09-19T04:48:42;4.90;;;1.63;;
38972;SDS011;25333;50.762;4.470;2023-09-19T04:51:08;7.35;;;1.42;;
38972;SDS011;25333;50.762;4.470;2023-09-19T04:53:35;3.85;;;1.50;;
38972;SDS011;25333;50.762;4.470;2023-09-19T04:56:02;5.25;;;1.20;;
38972;SDS011;25333;50.762;4.470;2023-09-19T04:58:28;6.82;;;1.27;;
38972;SDS011;25333;50.762;4.470;2023-09-19T05:00:55;8.13;;;1.77;;
38972;SDS011;25333;50.762;4.470;2023-09-19T05:03:21;7.22;;;1.45;;
38972;SDS011;25333;50.762;4.470;2023-09-19T05:05:47;6.20;;;1.30;;
38972;SDS011;25333;50.762;4.470;2023-09-19T05:08:13;7.80;;;1.33;;
38972;SDS011;25333;50.762;4.470;2023-09-19T05:10:39;6.03;;;1.35;;
38972;SDS011;25333;50.762;4.470;2023-09-19T05:13:06;4.32;;;1.10;;
38972;SDS011;25333;50.762;4.470;2023-09-19T05:15:33;8.18;;;1.15;;
38972;SDS011;25333;50.762;4.470;2023-09-19T05:18:00;3.55;;;1.00;;
38972;SDS011;25333;50.762;4.470;2023-09-19T05:20:28;4.60;;;1.27;;
38972;SDS011;25333;50.762;4.470;2023-09-19T05:23:04;7.30;;;0.93;;
38972;SDS011;25333;50.762;4.470;2023-09-19T05:25:37;6.60;;;1.25;;
38972;SDS011;25333;50.762;4.470;2023-09-19T05:28:05;8.00;;;1.35;;
38972;SDS011;25333;50.762;4.470;2023-09-19T05:30:32;4.45;;;1.05;;
38972;SDS011;25333;50.762;4.470;2023-09-19T05:33:00;6.57;;;1.70;;
38972;SDS011;25333;50.762;4.470;2023-09-19T05:35:27;7.37;;;1.00;;
38972;SDS011;25333;50.762;4.470;2023-09-19T05:37:53;6.28;;;1.08;;
38972;SDS011;25333;50.762;4.470;2023-09-19T05:40:20;5.50;;;1.08;;
38972;SDS011;25333;50.762;4.470;2023-09-19T05:42:46;8.23;;;1.00;;
38972;SDS011;25333;50.762;4.470;2023-09-19T05:45:12;4.78;;;1.27;;
38972;SDS011;25333;50.762;4.470;2023-09-19T05:47:39;6.55;;;1.13;;
38972;SDS011;25333;50.762;4.470;2023-09-19T05:50:10;7.25;;;1.67;;
38972;SDS011;25333;50.762;4.470;2023-09-19T05:52:37;5.65;;;0.95;;
38972;SDS011;25333;50.762;4.470;2023-09-19T05:55:07;6.40;;;1.00;;
38972;SDS011;25333;50.762;4.470;2023-09-19T05:57:37;6.10;;;1.63;;
38972;SDS011;25333;50.762;4.470;2023-09-19T06:00:07;4.90;;;1.33;;
38972;SDS011;25333;50.762;4.470;2023-09-19T06:02:39;10.52;;;1.60;;
38972;SDS011;25333;50.762;4.470;2023-09-19T06:05:05;3.72;;;1.33;;
38972;SDS011;25333;50.762;4.470;2023-09-19T06:07:32;10.32;;;1.23;;
38972;SDS011;25333;50.762;4.470;2023-09-19T06:10:04;5.45;;;1.02;;
38972;SDS011;25333;50.762;4.470;2023-09-19T06:12:44;7.93;;;1.52;;
38972;SDS011;25333;50.762;4.470;2023-09-19T06:15:10;6.32;;;1.40;;
38972;SDS011;25333;50.762;4.470;2023-09-19T06:17:50;6.63;;;1.40;;
38972;SDS011;25333;50.762;4.470;2023-09-19T06:20:22;5.38;;;0.73;;
38972;SDS011;25333;50.762;4.470;2023-09-19T06:22:49;5.50;;;1.17;;
38972;SDS011;25333;50.762;4.470;2023-09-19T06:25:15;10.38;;;1.73;;
38972;SDS011;25333;50.762;4.470;2023-09-19T06:27:53;8.90;;;1.73;;
38972;SDS011;25333;50.762;4.470;2023-09-19T06:30:21;5.95;;;1.33;;
38972;SDS011;25333;50.762;4.470;2023-09-19T06:32:59;6.72;;;1.13;;
38972;SDS011;25333;50.762;4.470;2023-09-19T06:35:27;3.35;;;0.68;;
38972;SDS011;25333;50.762;4.470;2023-09-19T06:37:57;10.10;;;2.42;;
38972;SDS011;25333;50.762;4.470;2023-09-19T06:40:23;5.83;;;1.10;;
38972;SDS011;25333;50.762;4.470;2023-09-19T06:42:52;6.97;;;1.20;;
38972;SDS011;25333;50.762;4.470;2023-09-19T06:45:19;6.40;;;1.20;;
38972;SDS011;25333;50.762;4.470;2023-09-19T06:47:47;6.30;;;1.10;;
38972;SDS011;25333;50.762;4.470;2023-09-19T06:50:17;5.22;;;1.13;;
38972;SDS011;25333;50.762;4.470;2023-09-19T06:52:44;4.25;;;1.02;;
38972;SDS011;25333;50.762;4.470;2023-09-19T06:55:10;8.68;;;2.08;;
38972;SDS011;25333;50.762;4.470;2023-09-19T06:57:38;4.32;;;1.25;;
38972;SDS011;25333;50.762;4.470;2023-09-19T07:00:05;5.50;;;1.50;;
38972;SDS011;25333;50.762;4.470;2023-09-19T07:05:28;5.07;;;1.50;;
38972;SDS011;25333;50.762;4.470;2023-09-19T07:07:57;4.43;;;1.42;;
38972;SDS011;25333;50.762;4.470;2023-09-19T07:10:24;6.72;;;1.20;;
38972;SDS011;25333;50.762;4.470;2023-09-19T07:12:57;7.38;;;2.03;;
38972;SDS011;25333;50.762;4.470;2023-09-19T07:15:24;8.85;;;1.90;;
38972;SDS011;25333;50.762;4.470;2023-09-19T07:17:54;10.20;;;1.83;;
38972;SDS011;25333;50.762;4.470;2023-09-19T07:20:21;6.47;;;1.40;;
38972;SDS011;25333;50.762;4.470;2023-09-19T07:22:48;8.65;;;1.27;;
38972;SDS011;25333;50.762;4.470;2023-09-19T07:25:16;9.32;;;1.27;;
38972;SDS011;25333;50.762;4.470;2023-09-19T07:27:42;3.97;;;1.08;;
38972;SDS011;25333;50.762;4.470;2023-09-19T07:30:08;5.28;;;1.25;;
38972;SDS011;25333;50.762;4.470;2023-09-19T07:32:35;7.25;;;1.60;;
38972;SDS011;25333;50.762;4.470;2023-09-19T07:35:03;6.03;;;1.70;;
38972;SDS011;25333;50.762;4.470;2023-09-19T07:37:33;7.85;;;1.48;;
38972;SDS011;25333;50.762;4.470;2023-09-19T07:40:01;6.65;;;1.35;;
38972;SDS011;25333;50.762;4.470;2023-09-19T07:42:32;6.85;;;1.13;;
38972;SDS011;25333;50.762;4.470;2023-09-19T07:45:00;7.82;;;1.15;;
38972;SDS011;25333;50.762;4.470;2023-09-19T07:47:26;7.07;;;1.07;;
38972;SDS011;25333;50.762;4.470;2023-09-19T07:49:52;5.40;;;1.25;;
38972;SDS011;25333;50.762;4.470;2023-09-19T07:52:18;10.07;;;1.10;;
38972;SDS011;25333;50.762;4.470;2023-09-19T07:54:44;4.60;;;1.27;;
38972;SDS011;25333;50.762;4.470;2023-09-19T07:57:10;5.00;;;1.20;;
38972;SDS011;25333;50.762;4.470;2023-09-19T07:59:36;8.75;;;1.85;;
38972;SDS011;25333;50.762;4.470;2023-09-19T08:02:04;7.38;;;1.45;;
38972;SDS011;25333;50.762;4.470;2023-09-19T08:04:30;7.97;;;1.05;;
38972;SDS011;25333;50.762;4.470;2023-09-19T08:06:57;6.20;;;1.20;;
38972;SDS011;25333;50.762;4.470;2023-09-19T08:09:25;5.15;;;1.08;;
38972;SDS011;25333;50.762;4.470;2023-09-19T08:11:52;7.15;;;1.83;;
38972;SDS011;25333;50.762;4.470;2023-09-19T08:14:18;9.00;;;1.85;;
38972;SDS011;25333;50.762;4.470;2023-09-19T08:16:44;6.73;;;1.27;;
38972;SDS011;25333;50.762;4.470;2023-09-19T08:19:10;7.93;;;1.33;;
38972;SDS011;25333;50.762;4.470;2023-09-19T08:21:36;5.85;;;1.33;;
38972;SDS011;25333;50.762;4.470;2023-09-19T08:24:02;6.28;;;1.50;;
38972;SDS011;25333;50.762;4.470;2023-09-19T08:26:29;6.72;;;1.00;;
38972;SDS011;25333;50.762;4.470;2023-09-19T08:28:55;8.50;;;1.23;;
38972;SDS011;25333;50.762;4.470;2023-09-19T08:31:22;11.48;;;1.98;;
38972;SDS011;25333;50.762;4.470;2023-09-19T08:33:48;9.38;;;1.83;;
38972;SDS011;25333;50.762;4.470;2023-09-19T08:36:16;7.03;;;1.40;;
38972;SDS011;25333;50.762;4.470;2023-09-19T08:38:42;5.28;;;1.05;;
38972;SDS011;25333;50.762;4.470;2023-09-19T08:41:08;5.70;;;1.17;;
38972;SDS011;25333;50.762;4.470;2023-09-19T08:43:34;5.27;;;1.37;;
38972;SDS011;25333;50.762;4.470;2023-09-19T08:48:34;9.15;;;1.50;;
38972;SDS011;25333;50.762;4.470;2023-09-19T08:51:13;4.10;;;1.30;;
38972;SDS011;25333;50.762;4.470;2023-09-19T09:07:11;7.88;;;1.60;;
38972;SDS011;25333;50.762;4.470;2023-09-19T09:09:44;5.97;;;1.13;;
38972;SDS011;25333;50.762;4.470;2023-09-19T09:12:14;6.32;;;1.20;;
38972;SDS011;25333;50.762;4.470;2023-09-19T09:14:40;5.82;;;1.58;;
38972;SDS011;25333;50.762;4.470;2023-09-19T09:17:15;8.20;;;1.13;;
38972;SDS011;25333;50.762;4.470;2023-09-19T09:19:45;6.93;;;1.30;;
38972;SDS011;25333;50.762;4.470;2023-09-19T09:22:12;4.65;;;1.40;;
38972;SDS011;25333;50.762;4.470;2023-09-19T09:24:50;3.03;;;0.93;;
38972;SDS011;25333;50.762;4.470;2023-09-19T09:27:29;5.45;;;1.02;;
38972;SDS011;25333;50.762;4.470;2023-09-19T09:29:56;4.82;;;1.25;;
38972;SDS011;25333;50.762;4.470;2023-09-19T09:32:29;5.00;;;0.90;;
38972;SDS011;25333;50.762;4.470;2023-09-19T09:34:59;4.45;;;1.05;;
38972;SDS011;25333;50.762;4.470;2023-09-19T09:37:26;5.65;;;1.67;;
38972;SDS011;25333;50.762;4.470;2023-09-19T09:39:59;5.00;;;1.10;;
38972;SDS011;25333;50.762;4.470;2023-09-19T09:42:44;4.90;;;1.60;;
38972;SDS011;25333;50.762;4.470;2023-09-19T09:45:20;4.93;;;1.13;;
38972;SDS011;25333;50.762;4.470;2023-09-19T09:48:02;5.72;;;1.15;;
38972;SDS011;25333;50.762;4.470;2023-09-19T09:53:23;5.47;;;1.30;;
38972;SDS011;25333;50.762;4.470;2023-09-19T09:58:51;2.97;;;0.45;;
38972;SDS011;25333;50.762;4.470;2023-09-19T10:01:24;4.97;;;1.13;;
38972;SDS011;25333;50.762;4.470;2023-09-19T10:03:57;4.18;;;0.80;;
38972;SDS011;25333;50.762;4.470;2023-09-19T10:06:23;3.50;;;0.70;;
38972;SDS011;25333;50.762;4.470;2023-09-19T10:08:59;2.83;;;0.65;;
38972;SDS011;25333;50.762;4.470;2023-09-19T10:11:31;2.20;;;0.47;;
38972;SDS011;25333;50.762;4.470;2023-09-19T10:13:58;6.93;;;1.15;;
38972;SDS011;25333;50.762;4.470;2023-09-19T10:16:31;4.05;;;0.50;;
38972;SDS011;25333;50.762;4.470;2023-09-19T10:18:59;4.20;;;0.85;;
38972;SDS011;25333;50.762;4.470;2023-09-19T10:21:32;2.95;;;0.65;;
38972;SDS011;25333;50.762;4.470;2023-09-19T10:24:01;1.67;;;0.60;;
38972;SDS011;25333;50.762;4.470;2023-09-19T10:26:30;4.85;;;0.63;;
38972;SDS011;25333;50.762;4.470;2023-09-19T10:28:56;4.63;;;1.40;;
38972;SDS011;25333;50.762;4.470;2023-09-19T10:31:24;2.97;;;0.53;;
38972;SDS011;25333;50.762;4.470;2023-09-19T10:33:53;1.70;;;0.43;;
38972;SDS011;25333;50.762;4.470;2023-09-19T10:36:21;4.60;;;0.70;;
38972;SDS011;25333;50.762;4.470;2023-09-19T10:38:52;3.90;;;0.80;;
38972;SDS011;25333;50.762;4.470;2023-09-19T10:41:23;3.15;;;0.55;;
38972;SDS011;25333;50.762;4.470;2023-09-19T10:43:50;4.83;;;1.20;;
38972;SDS011;25333;50.762;4.470;2023-09-19T10:46:19;3.83;;;0.88;;
38972;SDS011;25333;50.762;4.470;2023-09-19T10:48:45;3.40;;;0.70;;
38972;SDS011;25333;50.762;4.470;2023-09-19T10:51:17;3.17;;;0.63;;
38972;SDS011;25333;50.762;4.470;2023-09-19T10:53:52;4.28;;;0.63;;
38972;SDS011;25333;50.762;4.470;2023-09-19T10:56:32;4.13;;;0.80;;
38972;SDS011;25333;50.762;4.470;2023-09-19T10:59:20;2.22;;;0.57;;
38972;SDS011;25333;50.762;4.470;2023-09-19T11:01:54;3.75;;;0.70;;
38972;SDS011;25333;50.762;4.470;2023-09-19T11:07:07;4.97;;;0.70;;
38972;SDS011;25333;50.762;4.470;2023-09-19T11:15:05;2.00;;;0.28;;
38972;SDS011;25333;50.762;4.470;2023-09-19T11:17:39;2.63;;;0.57;;
38972;SDS011;25333;50.762;4.470;2023-09-19T11:20:17;3.00;;;1.07;;
38972;SDS011;25333;50.762;4.470;2023-09-19T11:30:30;3.07;;;0.50;;
38972;SDS011;25333;50.762;4.470;2023-09-19T11:33:16;3.83;;;1.20;;
38972;SDS011;25333;50.762;4.470;2023-09-19T11:46:17;4.75;;;0.60;;
38972;SDS011;25333;50.762;4.470;2023-09-19T11:48:47;3.65;;;0.30;;
38972;SDS011;25333;50.762;4.470;2023-09-19T11:51:24;1.60;;;0.50;;
38972;SDS011;25333;50.762;4.470;2023-09-19T11:53:54;2.30;;;0.30;;
38972;SDS011;25333;50.762;4.470;2023-09-19T11:56:25;5.53;;;0.90;;
38972;SDS011;25333;50.762;4.470;2023-09-19T11:58:54;3.35;;;0.70;;
38972;SDS011;25333;50.762;4.470;2023-09-19T12:01:24;4.20;;;0.60;;
38972;SDS011;25333;50.762;4.470;2023-09-19T12:03:54;2.67;;;0.60;;
38972;SDS011;25333;50.762;4.470;2023-09-19T12:06:24;4.80;;;0.55;;
38972;SDS011;25333;50.762;4.470;2023-09-19T12:08:51;1.23;;;0.40;;
38972;SDS011;25333;50.762;4.470;2023-09-19T12:11:19;3.23;;;0.43;;
38972;SDS011;25333;50.762;4.470;2023-09-19T12:13:46;2.50;;;0.50;;
38972;SDS011;25333;50.762;4.470;2023-09-19T12:16:17;2.22;;;0.40;;
38972;SDS011;25333;50.762;4.470;2023-09-19T12:18:47;2.25;;;0.30;;
38972;SDS011;25333;50.762;4.470;2023-09-19T12:21:21;1.37;;;0.37;;
38972;SDS011;25333;50.762;4.470;2023-09-19T12:26:30;3.70;;;0.30;;
38972;SDS011;25333;50.762;4.470;2023-09-19T12:29:02;2.10;;;0.65;;
38972;SDS011;25333;50.762;4.470;2023-09-19T12:31:30;2.63;;;0.40;;
38972;SDS011;25333;50.762;4.470;2023-09-19T12:34:01;3.80;;;0.60;;
38972;SDS011;25333;50.762;4.470;2023-09-19T12:36:27;5.70;;;0.77;;
38972;SDS011;25333;50.762;4.470;2023-09-19T12:38:56;3.85;;;0.50;;
38972;SDS011;25333;50.762;4.470;2023-09-19T12:41:24;2.42;;;0.60;;
38972;SDS011;25333;50.762;4.470;2023-09-19T12:43:51;6.20;;;1.00;;
38972;SDS011;25333;50.762;4.470;2023-09-19T12:46:20;5.10;;;0.93;;
38972;SDS011;25333;50.762;4.470;2023-09-19T12:48:51;2.70;;;0.30;;
38972;SDS011;25333;50.762;4.470;2023-09-19T12:51:48;2.25;;;0.55;;
38972;SDS011;25333;50.762;4.470;2023-09-19T12:54:14;3.17;;;0.70;;
38972;SDS011;25333;50.762;4.470;2023-09-19T12:56:42;4.70;;;0.80;;
38972;SDS011;25333;50.762;4.470;2023-09-19T12:59:12;2.92;;;0.50;;
38972;SDS011;25333;50.762;4.470;2023-09-19T13:01:39;2.75;;;0.60;;
38972;SDS011;25333;50.762;4.470;2023-09-19T13:04:20;1.55;;;0.43;;
38972;SDS011;25333;50.762;4.470;2023-09-19T13:06:54;1.75;;;0.20;;
38972;SDS011;25333;50.762;4.470;2023-09-19T13:09:25;2.63;;;0.20;;
38972;SDS011;25333;50.762;4.470;2023-09-19T13:15:08;1.48;;;0.30;;
38972;SDS011;25333;50.762;4.470;2023-09-19T13:17:44;1.70;;;0.38;;
38972;SDS011;25333;50.762;4.470;2023-09-19T13:20:23;4.20;;;0.30;;
38972;SDS011;25333;50.762;4.470;2023-09-19T13:22:52;1.80;;;0.40;;
38972;SDS011;25333;50.762;4.470;2023-09-19T13:25:20;1.98;;;0.30;;
38972;SDS011;25333;50.762;4.470;2023-09-19T13:30:17;4.47;;;0.60;;
38972;SDS011;25333;50.762;4.470;2023-09-19T13:32:43;2.00;;;0.30;;
38972;SDS011;25333;50.762;4.470;2023-09-19T13:35:10;2.20;;;0.40;;
38972;SDS011;25333;50.762;4.470;2023-09-19T13:37:38;3.38;;;0.80;;
38972;SDS011;25333;50.762;4.470;2023-09-19T13:40:12;2.13;;;0.45;;
38972;SDS011;25333;50.762;4.470;2023-09-19T13:42:39;2.15;;;0.40;;
38972;SDS011;25333;50.762;4.470;2023-09-19T13:45:06;2.88;;;0.40;;
38972;SDS011;25333;50.762;4.470;2023-09-19T13:47:32;9.02;;;0.70;;
38972;SDS011;25333;50.762;4.470;2023-09-19T13:49:59;2.22;;;0.57;;
38972;SDS011;25333;50.762;4.470;2023-09-19T13:52:29;4.43;;;0.60;;
38972;SDS011;25333;50.762;4.470;2023-09-19T13:54:56;3.28;;;0.52;;
38972;SDS011;25333;50.762;4.470;2023-09-19T13:57:23;1.60;;;0.25;;
38972;SDS011;25333;50.762;4.470;2023-09-19T13:59:49;1.70;;;0.20;;
38972;SDS011;25333;50.762;4.470;2023-09-19T14:02:15;1.60;;;0.50;;
38972;SDS011;25333;50.762;4.470;2023-09-19T14:04:43;3.05;;;0.40;;
38972;SDS011;25333;50.762;4.470;2023-09-19T14:07:09;2.35;;;0.38;;
38972;SDS011;25333;50.762;4.470;2023-09-19T14:09:35;1.98;;;0.45;;
38972;SDS011;25333;50.762;4.470;2023-09-19T14:12:01;4.95;;;0.47;;
38972;SDS011;25333;50.762;4.470;2023-09-19T14:14:27;1.93;;;0.40;;
38972;SDS011;25333;50.762;4.470;2023-09-19T14:16:53;1.88;;;0.43;;
38972;SDS011;25333;50.762;4.470;2023-09-19T14:19:19;4.20;;;0.63;;
38972;SDS011;25333;50.762;4.470;2023-09-19T14:21:46;2.13;;;0.60;;
38972;SDS011;25333;50.762;4.470;2023-09-19T14:24:16;2.50;;;0.60;;
38972;SDS011;25333;50.762;4.470;2023-09-19T14:26:42;1.92;;;0.55;;
38972;SDS011;25333;50.762;4.470;2023-09-19T14:29:10;5.25;;;0.50;;
38972;SDS011;25333;50.762;4.470;2023-09-19T14:31:39;2.95;;;0.60;;
38972;SDS011;25333;50.762;4.470;2023-09-19T14:34:05;2.50;;;0.30;;
38972;SDS011;25333;50.762;4.470;2023-09-19T14:36:31;3.80;;;0.47;;
38972;SDS011;25333;50.762;4.470;2023-09-19T14:38:58;4.93;;;0.75;;
38972;SDS011;25333;50.762;4.470;2023-09-19T14:41:24;4.40;;;0.80;;
38972;SDS011;25333;50.762;4.470;2023-09-19T14:43:53;2.95;;;0.60;;
38972;SDS011;25333;50.762;4.470;2023-09-19T14:46:20;2.53;;;0.68;;
38972;SDS011;25333;50.762;4.470;2023-09-19T14:48:47;3.10;;;0.60;;
38972;SDS011;25333;50.762;4.470;2023-09-19T14:51:13;1.77;;;0.50;;
38972;SDS011;25333;50.762;4.470;2023-09-19T14:53:42;3.70;;;0.73;;
38972;SDS011;25333;50.762;4.470;2023-09-19T14:56:08;2.97;;;0.40;;
38972;SDS011;25333;50.762;4.470;2023-09-19T14:58:37;2.80;;;0.40;;
38972;SDS011;25333;50.762;4.470;2023-09-19T15:01:07;2.88;;;0.60;;
38972;SDS011;25333;50.762;4.470;2023-09-19T15:03:37;5.30;;;0.90;;
38972;SDS011;25333;50.762;4.470;2023-09-19T15:06:08;3.40;;;0.85;;
38972;SDS011;25333;50.762;4.470;2023-09-19T15:08:39;1.80;;;0.47;;
38972;SDS011;25333;50.762;4.470;2023-09-19T15:11:05;3.23;;;0.43;;
38972;SDS011;25333;50.762;4.470;2023-09-19T15:13:32;2.05;;;0.50;;
38972;SDS011;25333;50.762;4.470;2023-09-19T15:16:08;2.92;;;0.30;;
38972;SDS011;25333;50.762;4.470;2023-09-19T15:18:34;1.50;;;0.60;;
38972;SDS011;25333;50.762;4.470;2023-09-19T15:21:09;2.70;;;0.63;;
38972;SDS011;25333;50.762;4.470;2023-09-19T15:23:37;2.90;;;1.23;;
38972;SDS011;25333;50.762;4.470;2023-09-19T15:26:06;2.73;;;0.50;;
38972;SDS011;25333;50.762;4.470;2023-09-19T15:28:36;2.45;;;0.68;;
38972;SDS011;25333;50.762;4.470;2023-09-19T15:31:04;2.63;;;0.70;;
38972;SDS011;25333;50.762;4.470;2023-09-19T15:33:36;4.50;;;1.00;;
38972;SDS011;25333;50.762;4.470;2023-09-19T15:36:12;1.65;;;0.40;;
38972;SDS011;25333;50.762;4.470;2023-09-19T15:41:27;5.60;;;0.70;;
38972;SDS011;25333;50.762;4.470;2023-09-19T15:43:55;5.18;;;0.60;;
38972;SDS011;25333;50.762;4.470;2023-09-19T15:46:24;3.03;;;0.47;;
38972;SDS011;25333;50.762;4.470;2023-09-19T15:48:52;4.20;;;0.60;;
38972;SDS011;25333;50.762;4.470;2023-09-19T15:51:19;2.50;;;0.60;;
38972;SDS011;25333;50.762;4.470;2023-09-19T15:53:46;3.70;;;0.50;;
38972;SDS011;25333;50.762;4.470;2023-09-19T15:56:14;3.15;;;0.80;;
38972;SDS011;25333;50.762;4.470;2023-09-19T15:58:46;1.55;;;0.40;;
38972;SDS011;25333;50.762;4.470;2023-09-19T16:01:12;2.63;;;0.65;;
38972;SDS011;25333;50.762;4.470;2023-09-19T16:03:39;2.25;;;0.80;;
38972;SDS011;25333;50.762;4.470;2023-09-19T16:06:14;2.60;;;0.73;;
38972;SDS011;25333;50.762;4.470;2023-09-19T16:08:46;3.67;;;0.40;;
38972;SDS011;25333;50.762;4.470;2023-09-19T16:11:12;4.13;;;0.85;;
38972;SDS011;25333;50.762;4.470;2023-09-19T16:13:40;2.25;;;0.60;;
38972;SDS011;25333;50.762;4.470;2023-09-19T16:16:07;1.75;;;0.52;;
38972;SDS011;25333;50.762;4.470;2023-09-19T16:18:37;3.42;;;0.70;;